Time;durP1;ratioP1;P1;durP2;ratioP2;P2;SDS_P1;SDS_P2;PMS_P1;PMS_P2;Temp;Humidity;BMP_temperature;BMP_pressure;BME280_temperature;BME280_humidity;BME280_pressure;Samples;Min_cycle;Max_cycle;Signal;HPM_P1;HPM_P2
2023/08/04 00:00:13;;;;;;;0.00;0.00;;;;;;;16.66;100.00;101033.31;5050793;28;20020;-45
2023/08/04 00:02:39;;;;;;;0.00;0.00;;;;;;;16.70;100.00;101039.16;5049754;28;20025;-45
2023/08/04 00:05:05;;;;;;;0.00;0.00;;;;;;;16.64;100.00;101040.84;5049737;28;20025;-44
2023/08/04 00:07:32;;;;;;;0.00;0.00;;;;;;;16.64;100.00;101040.84;5051096;28;20041;-45
2023/08/04 00:09:57;;;;;;;0.00;0.00;;;;;;;16.60;100.00;101042.34;5051249;28;20053;-45
2023/08/04 00:12:23;;;;;;;0.00;0.00;;;;;;;16.58;100.00;101042.53;5051083;28;20091;-42
2023/08/04 00:14:48;;;;;;;0.00;0.00;;;;;;;16.54;100.00;101044.03;5050440;28;20033;-46
2023/08/04 00:17:14;;;;;;;0.00;0.00;;;;;;;16.57;100.00;101042.78;5050831;28;20033;-45
2023/08/04 00:19:40;;;;;;;0.00;0.00;;;;;;;16.51;100.00;101047.19;5049845;28;20039;-43
2023/08/04 00:22:06;;;;;;;0.00;0.00;;;;;;;16.49;100.00;101049.28;5050932;28;20621;-45
2023/08/04 00:24:31;;;;;;;0.00;0.00;;;;;;;16.46;100.00;101056.00;5051158;28;20029;-44
2023/08/04 00:26:56;;;;;;;0.00;0.00;;;;;;;16.46;100.00;101056.00;5049256;28;20048;-43
2023/08/04 00:29:22;;;;;;;0.00;0.00;;;;;;;16.50;100.00;101044.69;5050977;28;20032;-43
2023/08/04 00:31:47;;;;;;;0.00;0.00;;;;;;;16.48;100.00;101052.22;5051071;28;20058;-43
2023/08/04 00:34:12;;;;;;;0.00;0.00;;;;;;;16.54;100.00;101052.19;5050868;28;20029;-44
2023/08/04 00:36:38;;;;;;;0.00;0.00;;;;;;;16.53;100.00;101046.97;5049673;28;20024;-45
2023/08/04 00:39:03;;;;;;;0.00;0.00;;;;;;;16.50;100.00;101047.41;5050917;28;20025;-44
2023/08/04 00:41:29;;;;;;;0.00;0.00;;;;;;;16.51;100.00;101049.06;5050948;28;20052;-46
2023/08/04 00:43:54;;;;;;;0.00;0.00;;;;;;;16.49;100.00;101051.19;5049409;28;20072;-45
2023/08/04 00:46:20;;;;;;;0.00;0.00;;;;;;;16.56;100.00;101052.81;5051201;28;20112;-44
2023/08/04 00:48:46;;;;;;;0.00;0.00;;;;;;;16.58;100.00;101052.59;5052976;28;20032;-43
2023/08/04 00:51:11;;;;;;;0.00;0.00;;;;;;;16.59;100.00;101052.38;5051546;28;20036;-44
2023/08/04 00:53:37;;;;;;;0.00;0.00;;;;;;;16.59;100.00;101054.28;5050746;28;20478;-43
2023/08/04 00:56:02;;;;;;;0.00;0.00;;;;;;;16.57;100.00;101057.19;5051288;28;20029;-46
2023/08/04 00:58:29;;;;;;;0.00;0.00;;;;;;;16.56;100.00;101054.69;5050601;28;20095;-47
2023/08/04 01:00:55;;;;;;;0.00;0.00;;;;;;;16.56;100.00;101060.09;5050426;28;20061;-47
2023/08/04 01:03:24;;;;;;;0.00;0.00;;;;;;;16.57;100.00;101064.50;5050568;28;20029;-47
2023/08/04 01:05:58;;;;;;;0.00;0.00;;;;;;;16.59;100.00;101067.84;5049867;28;20086;-49
2023/08/04 01:08:27;;;;;;;0.00;0.00;;;;;;;16.54;100.00;101057.63;5051594;28;20547;-46
2023/08/04 01:10:56;;;;;;;0.00;0.00;;;;;;;16.52;100.00;101053.47;5052482;28;20021;-44
2023/08/04 01:13:22;;;;;;;0.00;0.00;;;;;;;16.53;100.00;101060.53;5053132;28;20025;-44
2023/08/04 01:15:49;;;;;;;0.00;0.00;;;;;;;16.53;100.00;101065.97;5052571;28;20025;-48
2023/08/04 01:18:21;;;;;;;0.00;0.00;;;;;;;16.56;100.00;101063.69;5032871;28;20411;-46
2023/08/04 01:20:47;;;;;;;0.00;0.00;;;;;;;16.58;100.00;101058.84;5034135;28;20029;-45
2023/08/04 01:23:12;;;;;;;0.00;0.00;;;;;;;16.57;100.00;101059.06;5034228;28;20387;-49
2023/08/04 01:25:38;;;;;;;0.00;0.00;;;;;;;16.59;100.00;101067.84;5033683;28;20032;-46
2023/08/04 01:28:13;;;;;;;0.00;0.00;;;;;;;16.59;100.00;101062.41;5032919;28;20033;-45
2023/08/04 01:30:39;;;;;;;0.00;0.00;;;;;;;16.56;100.00;101065.53;5032787;28;20040;-48
2023/08/04 01:33:04;;;;;;;0.00;0.00;;;;;;;16.54;100.00;101054.91;5034112;28;20052;-45
2023/08/04 01:35:29;;;;;;;0.00;0.00;;;;;;;16.52;100.00;101069.75;5032982;28;20460;-46
2023/08/04 01:37:55;;;;;;;0.00;0.00;;;;;;;16.52;100.00;101064.31;5053649;28;20152;-47
2023/08/04 01:40:20;;;;;;;0.00;0.00;;;;;;;16.45;100.00;101064.34;5053454;28;20047;-45
2023/08/04 01:42:46;;;;;;;0.00;0.00;;;;;;;16.41;100.00;101069.38;5053677;28;20040;-42
2023/08/04 01:45:11;;;;;;;0.00;0.00;;;;;;;16.36;100.00;101071.91;5053249;28;20037;-44
2023/08/04 01:47:38;;;;;;;0.00;0.00;;;;;;;16.38;100.00;101069.81;5053274;28;20040;-45
2023/08/04 01:50:04;;;;;;;0.00;0.00;;;;;;;16.36;100.00;101071.91;5053401;28;20026;-45
2023/08/04 01:52:29;;;;;;;0.00;0.00;;;;;;;16.31;100.00;101069.00;5053303;28;20036;-43
2023/08/04 01:54:54;;;;;;;0.00;0.00;;;;;;;16.27;100.00;101070.47;5053331;28;20059;-46
2023/08/04 01:57:20;;;;;;;0.00;0.00;;;;;;;16.23;100.00;101066.53;5051472;28;20179;-46
2023/08/04 01:59:45;;;;;;;0.00;0.00;;;;;;;16.23;100.00;101074.66;5053567;28;20094;-45
2023/08/04 02:02:10;;;;;;;0.00;0.00;;;;;;;16.24;100.00;101068.19;5053319;28;20025;-43
2023/08/04 02:04:36;;;;;;;0.00;0.00;;;;;;;16.22;100.00;101075.72;5053018;28;20040;-44
2023/08/04 02:07:01;;;;;;;0.00;0.00;;;;;;;16.21;100.00;101071.31;5051733;28;20313;-44
2023/08/04 02:09:28;;;;;;;0.00;0.00;;;;;;;16.19;100.00;101081.56;5053417;28;20465;-45
2023/08/04 02:11:55;;;;;;;0.00;0.00;;;;;;;16.18;100.00;101077.19;5052994;28;20494;-44
2023/08/04 02:14:21;;;;;;;0.00;0.00;;;;;;;16.18;100.00;101074.47;5053718;28;20033;-45
2023/08/04 02:16:46;;;;;;;0.00;0.00;;;;;;;16.20;100.00;101077.81;5052709;28;20029;-43
2023/08/04 02:19:11;;;;;;;0.00;0.00;;;;;;;16.21;100.00;101085.72;5052399;28;20124;-43
2023/08/04 02:21:37;;;;;;;0.00;0.00;;;;;;;16.22;100.00;101089.31;5052929;28;20109;-44
2023/08/04 02:24:03;;;;;;;0.00;0.00;;;;;;;16.26;100.00;101087.81;5054420;28;20029;-42
2023/08/04 02:26:28;;;;;;;0.00;0.00;;;;;;;16.31;100.00;101090.72;5054690;28;20499;-44
2023/08/04 02:28:54;;;;;;;0.00;0.00;;;;;;;16.32;100.00;101096.97;5053655;28;20029;-45
2023/08/04 02:31:21;;;;;;;0.00;0.00;;;;;;;16.33;100.00;101101.38;5053293;28;20108;-44
2023/08/04 02:33:46;;;;;;;0.00;0.00;;;;;;;16.33;100.00;101093.25;5053528;28;20045;-45
2023/08/04 02:36:13;;;;;;;0.00;0.00;;;;;;;16.30;100.00;101099.94;5052959;28;20064;-45
2023/08/04 02:38:38;;;;;;;0.00;0.00;;;;;;;16.34;100.00;101087.56;5053489;28;20033;-42
2023/08/04 02:41:03;;;;;;;0.00;0.00;;;;;;;16.38;100.00;101090.72;5053839;28;20029;-44
2023/08/04 02:43:29;;;;;;;0.00;0.00;;;;;;;16.37;100.00;101098.00;5052773;28;20028;-43
2023/08/04 02:45:55;;;;;;;0.00;0.00;;;;;;;16.36;100.00;101104.50;5051797;28;20035;-44
2023/08/04 02:48:20;;;;;;;0.00;0.00;;;;;;;16.34;100.00;101103.88;5032579;28;20037;-45
2023/08/04 02:50:46;;;;;;;0.00;0.00;;;;;;;16.32;100.00;101114.09;5032547;28;20048;-42
2023/08/04 02:53:12;;;;;;;0.00;0.00;;;;;;;16.40;100.00;101122.06;5032567;28;20022;-49
2023/08/04 02:55:38;;;;;;;0.00;0.00;;;;;;;16.37;100.00;101108.88;5032273;28;20026;-44
2023/08/04 02:58:03;;;;;;;0.00;0.00;;;;;;;16.36;100.00;101109.94;5049905;28;20131;-46
2023/08/04 03:00:28;;;;;;;0.00;0.00;;;;;;;16.35;100.00;101105.56;5052382;28;20029;-44
2023/08/04 03:02:54;;;;;;;0.00;0.00;;;;;;;16.36;100.00;101104.50;5050339;28;20111;-43
2023/08/04 03:05:19;;;;;;;0.00;0.00;;;;;;;16.41;100.00;101107.41;5052025;28;20025;-44
2023/08/04 03:07:44;;;;;;;0.00;0.00;;;;;;;16.45;100.00;101111.34;5044498;28;20368;-44
2023/08/04 03:10:10;;;;;;;0.00;0.00;;;;;;;16.43;100.00;101110.75;5032116;28;20053;-46
2023/08/04 03:12:35;;;;;;;0.00;0.00;;;;;;;16.46;100.00;101104.06;5032005;28;20064;-45
2023/08/04 03:15:02;;;;;;;0.00;0.00;;;;;;;16.45;100.00;101103.19;5031612;28;20123;-45
2023/08/04 03:17:28;;;;;;;0.00;0.00;;;;;;;16.49;100.00;101109.06;5031820;28;20131;-46
2023/08/04 03:19:54;;;;;;;0.00;0.00;;;;;;;16.48;100.00;101107.38;5031743;28;20025;-44
2023/08/04 03:22:19;;;;;;;0.00;0.00;;;;;;;16.47;100.00;101111.16;5030362;28;20036;-43
2023/08/04 03:24:44;;;;;;;0.00;0.00;;;;;;;16.49;100.00;101111.78;5031800;28;20029;-46
2023/08/04 03:27:10;;;;;;;0.00;0.00;;;;;;;16.48;100.00;101126.38;5031644;28;20124;-45
2023/08/04 03:29:35;;;;;;;0.00;0.00;;;;;;;16.49;100.00;101124.53;5030922;28;20026;-45
2023/08/04 03:32:00;;;;;;;0.00;0.00;;;;;;;16.49;100.00;101130.78;5031533;28;20029;-45
2023/08/04 03:34:26;;;;;;;0.00;0.00;;;;;;;16.45;100.00;101124.94;5031604;28;20026;-44
2023/08/04 03:36:51;;;;;;;0.00;0.00;;;;;;;16.42;100.00;101125.38;5031471;28;20026;-44
2023/08/04 03:39:16;;;;;;;0.00;0.00;;;;;;;16.43;100.00;101131.66;5031646;28;20029;-44
2023/08/04 03:41:42;;;;;;;0.00;0.00;;;;;;;16.40;100.00;101132.91;5031724;28;20048;-47
2023/08/04 03:44:07;;;;;;;0.00;0.00;;;;;;;16.34;100.00;101136.47;5031773;28;20075;-44
2023/08/04 03:46:32;;;;;;;0.00;0.00;;;;;;;16.34;100.00;101132.91;5031303;28;20032;-45
2023/08/04 03:48:58;;;;;;;0.00;0.00;;;;;;;16.37;100.00;101138.75;5043534;28;20033;-46
2023/08/04 03:51:23;;;;;;;0.00;0.00;;;;;;;16.37;100.00;101143.34;5051518;28;20344;-45
2023/08/04 03:53:49;;;;;;;0.00;0.00;;;;;;;16.35;100.00;101145.44;5051431;28;20464;-45
2023/08/04 03:56:14;;;;;;;0.00;0.00;;;;;;;16.26;100.00;101154.88;5051133;28;20426;-46
2023/08/04 03:58:40;;;;;;;0.00;0.00;;;;;;;16.26;100.00;101149.44;5049165;28;20100;-42
2023/08/04 04:01:05;;;;;;;0.00;0.00;;;;;;;16.21;100.00;101156.34;5051255;28;20022;-43
2023/08/04 04:03:30;;;;;;;0.00;0.00;;;;;;;16.20;100.00;101170.16;5051151;28;20040;-43
2023/08/04 04:05:56;;;;;;;0.00;0.00;;;;;;;16.18;100.00;101172.22;5051145;28;20381;-45
2023/08/04 04:08:21;;;;;;;0.00;0.00;;;;;;;16.17;100.00;101184.16;5039141;28;20041;-45
2023/08/04 04:10:48;;;;;;;0.00;0.00;;;;;;;16.18;100.00;101180.38;5031404;28;20026;-43
2023/08/04 04:13:13;;;;;;;0.00;0.00;;;;;;;16.21;100.00;101174.53;5013191;28;20026;-48
2023/08/04 04:15:38;;;;;;;0.00;0.00;;;;;;;16.20;100.00;101183.72;5030928;28;20278;-43
2023/08/04 04:18:04;;;;;;;0.00;0.00;;;;;;;16.21;100.00;101177.22;5039080;28;20032;-42
2023/08/04 04:20:29;;;;;;;0.00;0.00;;;;;;;16.19;100.00;101171.16;5051091;28;20028;-43
2023/08/04 04:22:55;;;;;;;0.00;0.00;;;;;;;16.25;100.00;101167.63;5050612;28;20554;-44
2023/08/04 04:25:20;;;;;;;0.00;0.00;;;;;;;16.23;100.00;101172.44;5050465;28;20029;-43
2023/08/04 04:27:45;;;;;;;0.00;0.00;;;;;;;16.21;100.00;101182.66;5050617;28;20115;-45
2023/08/04 04:30:11;;;;;;;0.00;0.00;;;;;;;16.26;100.00;101188.31;5050668;28;20036;-45
2023/08/04 04:32:36;;;;;;;0.00;0.00;;;;;;;16.25;100.00;101197.50;5049073;28;20017;-43
2023/08/04 04:35:01;;;;;;;0.00;0.00;;;;;;;16.22;100.00;101192.50;5050241;28;20403;-48
2023/08/04 04:37:27;;;;;;;0.00;0.00;;;;;;;16.21;100.00;101198.97;5048151;28;20183;-42
2023/08/04 04:39:52;;;;;;;0.00;0.00;;;;;;;16.17;100.00;101197.72;5031315;28;20050;-43
2023/08/04 04:42:17;;;;;;;0.00;0.00;;;;;;;16.12;100.00;101200.22;5030015;28;20030;-44
2023/08/04 04:44:43;;;;;;;0.00;0.00;;;;;;;16.11;100.00;101196.66;5029025;28;20025;-43
2023/08/04 04:47:09;;;;;;;0.00;0.00;;;;;;;16.09;100.00;101203.34;5045818;28;20040;-46
2023/08/04 04:49:35;;;;;;;0.00;0.00;;;;;;;16.06;100.00;101209.19;5047788;28;20033;-47
2023/08/04 04:52:00;;;;;;;0.00;0.00;;;;;;;16.06;100.00;101207.34;5030486;28;20033;-45
2023/08/04 04:54:25;;;;;;;0.00;0.00;;;;;;;16.10;100.00;101211.28;5048771;28;20542;-43
2023/08/04 04:56:51;;;;;;;0.00;0.00;;;;;;;16.10;100.00;101222.16;5046765;28;20467;-43
2023/08/04 04:59:16;;;;;;;0.00;0.00;;;;;;;16.17;100.00;101227.59;5032277;28;20049;-45
2023/08/04 05:01:42;;;;;;;0.00;0.00;;;;;;;16.15;100.00;101232.41;5028469;28;20029;-43
2023/08/04 05:04:08;;;;;;;0.00;0.00;;;;;;;16.15;100.00;101232.41;5027182;28;20049;-43
2023/08/04 05:06:34;;;;;;;0.00;0.00;;;;;;;16.20;100.00;101230.72;5028421;28;20078;-45
2023/08/04 05:08:59;;;;;;;0.00;0.00;;;;;;;16.24;100.00;101223.84;5041404;28;20025;-43
2023/08/04 05:11:24;;;;;;;0.00;0.00;;;;;;;16.28;100.00;101226.13;5048215;28;20040;-45
2023/08/04 05:13:50;;;;;;;0.00;0.00;;;;;;;16.27;100.00;101225.25;5048225;28;20037;-45
2023/08/04 05:16:15;;;;;;;0.00;0.00;;;;;;;16.34;100.00;101228.81;5048216;28;20084;-46
2023/08/04 05:18:40;;;;;;;0.00;0.00;;;;;;;16.37;100.00;101233.81;5037774;28;20042;-45
2023/08/04 05:21:06;;;;;;;0.00;0.00;;;;;;;16.33;100.00;101235.31;5027940;28;20048;-45
2023/08/04 05:23:31;;;;;;;0.00;0.00;;;;;;;16.37;100.00;101236.53;5031951;28;20493;-44
2023/08/04 05:25:57;;;;;;;0.00;0.00;;;;;;;16.42;100.00;101239.47;5026639;28;20137;-44
2023/08/04 05:28:30;;;;;;;0.00;0.00;;;;;;;16.48;100.00;101239.66;5033705;28;20131;-46
2023/08/04 05:31:00;;;;;;;0.00;0.00;;;;;;;16.48;100.00;101231.50;5037362;28;20470;-46
2023/08/04 05:33:26;;;;;;;0.00;0.00;;;;;;;16.52;100.00;101233.59;5029793;28;20029;-45
2023/08/04 05:35:52;;;;;;;0.00;0.00;;;;;;;16.54;100.00;101231.53;5028094;28;20030;-46
2023/08/04 05:38:17;;;;;;;0.00;0.00;;;;;;;16.60;100.00;101225.22;5033634;28;20033;-46
2023/08/04 05:40:44;;;;;;;0.00;0.00;;;;;;;16.66;100.00;101226.25;5048025;28;20515;-46
2023/08/04 05:43:10;;;;;;;0.00;0.00;;;;;;;16.60;100.00;101222.50;5047826;28;20486;-46
2023/08/04 05:45:37;;;;;;;0.00;0.00;;;;;;;16.52;100.00;101238.22;5041652;28;20053;-49
2023/08/04 05:48:04;;;;;;;0.00;0.00;;;;;;;16.47;100.00;101241.56;5027818;28;20029;-45
2023/08/04 05:50:29;;;;;;;0.00;0.00;;;;;;;16.44;100.00;101242.81;5034324;28;20032;-48
2023/08/04 05:52:55;;;;;;;0.00;0.00;;;;;;;16.43;100.00;101241.16;5048450;28;20055;-44
2023/08/04 05:55:20;;;;;;;0.00;0.00;;;;;;;16.45;100.00;101249.06;5050067;28;20025;-47
2023/08/04 05:57:46;;;;;;;0.00;0.00;;;;;;;16.39;100.00;101255.38;5049233;28;20151;-47
2023/08/04 06:00:11;;;;;;;0.00;0.00;;;;;;;16.31;100.00;101264.56;5046209;28;20175;-46
2023/08/04 06:02:37;;;;;;;0.00;0.00;;;;;;;16.18;100.00;101276.25;5031525;28;20362;-43
2023/08/04 06:05:02;;;;;;;0.00;0.00;;;;;;;16.15;100.00;101278.56;5031522;28;20475;-43
2023/08/04 06:07:27;;;;;;;0.00;0.00;;;;;;;16.09;100.00;101282.94;5031703;28;20038;-44
2023/08/04 06:09:53;;;;;;;0.00;0.00;;;;;;;16.03;100.00;101291.91;5031932;28;20029;-40
2023/08/04 06:12:18;;;;;;;0.00;0.00;;;;;;;16.04;100.00;101298.19;5038970;28;20621;-43
2023/08/04 06:14:45;;;;;;;0.00;0.00;;;;;;;16.06;100.00;101317.81;5038502;28;20056;-44
2023/08/04 06:17:10;;;;;;;0.00;0.00;;;;;;;16.11;100.00;101326.16;5048134;28;20041;-46
2023/08/04 06:19:39;;;;;;;0.00;0.00;;;;;;;16.19;100.00;101320.53;5051478;28;20439;-46
2023/08/04 06:22:04;;;;;;;0.00;0.00;;;;;;;16.30;100.00;101319.94;5045505;28;20167;-41
2023/08/04 06:24:30;;;;;;;0.00;0.00;;;;;;;16.41;100.00;101322.03;5050913;28;20127;-44
2023/08/04 06:26:55;;;;;;;0.00;0.00;;;;;;;16.54;100.00;101323.06;5051648;28;20476;-45
2023/08/04 06:29:20;;;;;;;0.00;0.00;;;;;;;16.63;100.00;101314.47;5046215;28;20037;-44
2023/08/04 06:31:46;;;;;;;0.00;0.00;;;;;;;16.80;100.00;101312.22;5031308;28;20036;-47
2023/08/04 06:34:12;;;;;;;0.00;0.00;;;;;;;16.95;100.00;101313.84;5031455;28;20104;-47
2023/08/04 06:36:37;;;;;;;0.00;0.00;;;;;;;16.97;100.00;101309.03;5035035;28;20037;-48
2023/08/04 06:39:03;;;;;;;0.00;0.00;;;;;;;16.89;100.00;101310.09;5035260;28;20075;-45
2023/08/04 06:41:28;;;;;;;0.00;0.00;;;;;;;16.77;100.00;101296.31;5036044;28;20506;-47
2023/08/04 06:43:54;;;;;;;0.00;0.00;;;;;;;16.74;100.00;101296.69;5052412;28;20033;-48
2023/08/04 06:46:19;;;;;;;0.00;0.00;;;;;;;16.70;100.00;101297.34;5043126;28;20037;-46
2023/08/04 06:48:45;;;;;;;0.00;0.00;;;;;;;16.71;100.00;101302.56;5044368;28;20515;-44
2023/08/04 06:51:10;;;;;;;0.00;0.00;;;;;;;16.73;100.00;101305.91;5044765;28;20040;-43
2023/08/04 06:53:35;;;;;;;0.00;0.00;;;;;;;16.78;100.00;101306.13;5038514;28;20035;-44
2023/08/04 06:56:01;;;;;;;0.00;0.00;;;;;;;16.87;100.00;101307.56;5055531;28;20132;-44
2023/08/04 06:58:26;;;;;;;0.00;0.00;;;;;;;16.92;100.00;101303.41;5053466;28;20049;-43
2023/08/04 07:00:51;;;;;;;0.00;0.00;;;;;;;16.98;100.00;101307.97;5052517;28;20108;-44
2023/08/04 07:03:17;;;;;;;0.00;0.00;;;;;;;17.00;100.00;101309.44;5051716;28;20325;-43
2023/08/04 07:05:42;;;;;;;0.00;0.00;;;;;;;17.23;100.00;101306.22;5032670;28;20119;-47
2023/08/04 07:08:07;;;;;;;0.00;0.00;;;;;;;17.43;100.00;101305.31;5032517;28;20033;-44
2023/08/04 07:10:35;;;;;;;0.00;0.00;;;;;;;17.60;100.00;101305.66;5032218;28;20030;-46
2023/08/04 07:13:00;;;;;;;0.00;0.00;;;;;;;17.56;100.00;101307.97;5032211;28;20034;-44
2023/08/04 07:15:25;;;;;;;0.00;0.00;;;;;;;17.52;100.00;101304.84;5032450;28;20472;-47
2023/08/04 07:17:51;;;;;;;0.00;0.00;;;;;;;17.62;100.00;101303.56;5032285;28;20087;-45
2023/08/04 07:20:16;;;;;;;0.00;0.00;;;;;;;17.66;100.00;101311.06;5032241;28;20068;-43
2023/08/04 07:22:41;;;;;;;0.00;0.00;;;;;;;17.85;100.00;101311.19;5032344;28;20053;-47
2023/08/04 07:25:07;;;;;;;0.00;0.00;;;;;;;18.05;100.00;101311.91;5034519;28;20082;-46
2023/08/04 07:27:32;;;;;;;0.00;0.00;;;;;;;18.53;100.00;101313.22;5051494;28;20041;-46
2023/08/04 07:29:58;;;;;;;0.00;0.00;;;;;;;19.56;100.00;101319.88;5050343;28;20032;-47
2023/08/04 07:32:23;;;;;;;0.00;0.00;;;;;;;20.96;100.00;101302.16;5049942;28;20108;-44
2023/08/04 07:34:49;;;;;;;0.00;0.00;;;;;;;21.16;100.00;101286.16;5050479;28;20033;-45
2023/08/04 07:37:14;;;;;;;0.00;0.00;;;;;;;20.98;100.00;101289.03;5050464;28;20211;-47
2023/08/04 07:39:41;;;;;;;0.00;0.00;;;;;;;20.64;100.00;101294.31;5051214;28;20035;-45
2023/08/04 07:42:06;;;;;;;0.00;0.00;;;;;;;20.22;100.00;101302.59;5051686;28;20060;-46
2023/08/04 07:44:34;;;;;;;0.00;0.00;;;;;;;20.00;100.00;101309.66;5051665;28;20459;-44
2023/08/04 07:46:59;;;;;;;0.00;0.00;;;;;;;19.94;100.00;101308.69;5051680;28;20541;-47
2023/08/04 07:49:25;;;;;;;0.00;0.00;;;;;;;20.01;100.00;101308.56;5051305;28;20029;-47
2023/08/04 07:51:50;;;;;;;0.00;0.00;;;;;;;19.82;100.00;101308.63;5051292;28;20029;-49
2023/08/04 07:54:16;;;;;;;0.00;0.00;;;;;;;20.10;100.00;101312.66;5039462;28;20022;-49
2023/08/04 07:56:41;;;;;;;0.00;0.00;;;;;;;20.18;100.00;101309.56;5071132;28;20379;-45
2023/08/04 07:59:06;;;;;;;0.00;0.00;;;;;;;20.24;100.00;101308.63;5071191;28;20120;-47
2023/08/04 08:01:32;;;;;;;0.00;0.00;;;;;;;20.07;100.00;101313.94;5051937;28;20406;-45
2023/08/04 08:03:57;;;;;;;0.00;0.00;;;;;;;19.94;100.00;101312.25;5042345;28;20078;-46
2023/08/04 08:06:22;;;;;;;0.00;0.00;;;;;;;19.83;100.00;101323.13;5039702;28;20040;-45
2023/08/04 08:08:48;;;;;;;0.00;0.00;;;;;;;19.67;100.00;101317.25;5034326;28;20109;-45
2023/08/04 08:11:14;;;;;;;0.00;0.00;;;;;;;19.40;100.00;101316.72;5047664;28;20032;-44
2023/08/04 08:13:39;;;;;;;0.00;0.00;;;;;;;19.20;100.00;101321.59;5040497;28;20060;-46
2023/08/04 08:16:13;;;;;;;0.00;0.00;;;;;;;19.19;100.00;101325.38;5050755;28;20471;-46
2023/08/04 08:18:38;;;;;;;0.00;0.00;;;;;;;19.27;100.00;101339.56;5049578;28;20056;-48
2023/08/04 08:21:08;;;;;;;0.00;0.00;;;;;;;19.36;100.00;101336.53;5050807;28;20554;-46
2023/08/04 08:23:33;;;;;;;0.00;0.00;;;;;;;19.44;100.00;101337.03;5051025;28;20457;-46
2023/08/04 08:25:59;;;;;;;0.00;0.00;;;;;;;20.23;100.00;101337.03;5053225;28;20044;-42
2023/08/04 08:28:24;;;;;;;0.00;0.00;;;;;;;21.60;100.00;101335.84;5050658;28;20550;-43
2023/08/04 08:30:49;;;;;;;0.00;0.00;;;;;;;22.36;100.00;101338.34;5050821;28;20115;-45
2023/08/04 08:33:15;;;;;;;0.00;0.00;;;;;;;22.67;100.00;101336.94;5050747;28;20462;-46
2023/08/04 08:35:40;;;;;;;0.00;0.00;;;;;;;23.54;100.00;101340.06;5050826;28;20113;-47
2023/08/04 08:38:05;;;;;;;0.00;0.00;;;;;;;24.79;100.00;101342.66;5050553;28;20112;-48
2023/08/04 08:40:31;;;;;;;0.00;0.00;;;;;;;25.09;100.00;101342.03;5048945;28;20443;-42
2023/08/04 08:42:57;;;;;;;0.00;0.00;;;;;;;25.06;100.00;101342.56;5050406;28;20056;-44
2023/08/04 08:45:27;;;;;;;0.00;0.00;;;;;;;25.11;98.09;101348.09;5049256;28;20390;-46
2023/08/04 08:47:53;;;;;;;0.00;0.00;;;;;;;24.21;100.00;101347.97;5050696;28;20029;-46
2023/08/04 08:50:22;;;;;;;0.00;0.00;;;;;;;23.43;100.00;101353.69;5049096;28;20036;-44
2023/08/04 08:52:51;;;;;;;0.00;0.00;;;;;;;22.91;100.00;101355.97;5050278;28;20475;-47
2023/08/04 08:55:17;;;;;;;0.00;0.00;;;;;;;22.88;100.00;101354.56;5049225;28;20333;-46
2023/08/04 08:57:43;;;;;;;0.00;0.00;;;;;;;23.15;100.00;101351.94;5050556;28;20028;-44
2023/08/04 09:00:09;;;;;;;0.00;0.00;;;;;;;23.20;100.00;101354.75;5050967;28;20025;-43
2023/08/04 09:02:36;;;;;;;0.00;0.00;;;;;;;22.64;100.00;101369.50;5050812;28;20083;-44
2023/08/04 09:05:03;;;;;;;0.00;0.00;;;;;;;22.32;100.00;101370.09;5051191;28;20021;-44
2023/08/04 09:07:29;;;;;;;0.00;0.00;;;;;;;22.56;100.00;101360.66;5049280;28;20029;-45
2023/08/04 09:09:54;;;;;;;0.00;0.00;;;;;;;23.40;100.00;101359.66;5049118;28;20056;-45
2023/08/04 09:12:20;;;;;;;0.00;0.00;;;;;;;23.84;100.00;101365.19;5050358;28;20025;-45
2023/08/04 09:14:55;;;;;;;0.00;0.00;;;;;;;24.58;100.00;101368.38;5049761;28;20052;-45
2023/08/04 09:17:34;;;;;;;0.00;0.00;;;;;;;25.29;100.00;101368.06;5048652;28;20033;-47
2023/08/04 09:20:04;;;;;;;0.00;0.00;;;;;;;25.31;100.00;101369.44;5049948;28;20048;-47
2023/08/04 09:22:36;;;;;;;0.00;0.00;;;;;;;24.91;100.00;101378.28;5050164;28;20120;-49
2023/08/04 09:25:03;;;;;;;0.00;0.00;;;;;;;23.88;100.00;101379.22;5050087;28;20438;-46
2023/08/04 09:27:35;;;;;;;;;;;;;;;23.56;100.00;101384.59;5048773;28;20025;-42
2023/08/04 09:30:03;;;;;;;0.00;0.00;;;;;;;23.49;100.00;101371.06;5053105;28;19916;-47
2023/08/04 09:32:29;;;;;;;0.00;0.00;;;;;;;22.99;100.00;101375.59;5039458;28;20407;-46
2023/08/04 09:35:02;;;;;;;0.00;0.00;;;;;;;22.65;100.00;101379.44;5042171;28;20029;-46
2023/08/04 09:37:31;;;;;;;0.00;0.00;;;;;;;22.99;100.00;101375.59;5037246;28;20449;-45
2023/08/04 09:39:56;;;;;;;0.00;0.00;;;;;;;23.40;100.00;101378.06;5051224;28;20025;-48
2023/08/04 09:42:21;;;;;;;0.00;0.00;;;;;;;23.54;100.00;101384.00;5038152;28;20386;-44
2023/08/04 09:44:54;;;;;;;0.00;0.00;;;;;;;23.71;100.00;101382.03;5053660;28;20021;-47
2023/08/04 09:47:26;;;;;;;0.00;0.00;;;;;;;23.68;100.00;101388.06;5035186;28;20028;-44
2023/08/04 09:49:52;;;;;;;0.00;0.00;;;;;;;23.39;100.00;101385.50;5033852;28;20034;-42
2023/08/04 09:52:22;;;;;;;0.00;0.00;;;;;;;23.48;100.00;101387.78;5037491;28;20100;-45
2023/08/04 09:54:51;;;;;;;0.00;0.00;;;;;;;23.71;100.00;101384.78;5051248;28;20405;-48
2023/08/04 09:57:16;;;;;;;0.00;0.00;;;;;;;23.99;100.00;101385.69;5051641;28;20104;-45
2023/08/04 09:59:42;;;;;;;0.00;0.00;;;;;;;24.04;97.37;101391.22;5045335;28;20132;-45
2023/08/04 10:02:08;;;;;;;0.00;0.00;;;;;;;23.92;98.92;101393.31;5033131;28;20017;-45
2023/08/04 10:04:34;;;;;;;0.00;0.00;;;;;;;24.07;100.00;101390.72;5048199;28;20051;-44
2023/08/04 10:07:00;;;;;;;0.00;0.00;;;;;;;24.09;100.00;101388.53;5049258;28;20040;-45
2023/08/04 10:09:31;;;;;;;0.00;0.00;;;;;;;24.07;100.00;101401.72;5031140;28;20836;-44
2023/08/04 10:11:58;;;;;;;0.00;0.00;;;;;;;23.94;100.00;101388.38;5047302;28;20044;-45
2023/08/04 10:14:23;;;;;;;0.00;0.00;;;;;;;24.04;100.00;101396.72;5051107;28;20028;-46
2023/08/04 10:16:49;;;;;;;0.00;0.00;;;;;;;23.82;100.00;101389.34;5044957;28;20037;-46
2023/08/04 10:19:18;;;;;;;0.00;0.00;;;;;;;23.57;100.00;101398.09;5037503;28;20026;-45
2023/08/04 10:21:44;;;;;;;0.00;0.00;;;;;;;23.07;100.00;101411.94;5049996;28;20041;-42
2023/08/04 10:24:11;;;;;;;0.00;0.00;;;;;;;22.92;100.00;101402.34;5051933;28;20033;-44
2023/08/04 10:26:56;;;;;;;0.00;0.00;;;;;;;23.66;100.00;101401.22;5043570;28;20167;-44
2023/08/04 10:29:35;;;;;;;0.00;0.00;;;;;;;23.86;100.00;101406.16;5031060;28;20495;-47
2023/08/04 10:32:03;;;;;;;0.00;0.00;;;;;;;24.45;99.98;101413.69;5031223;28;20025;-47
2023/08/04 10:34:29;;;;;;;0.00;0.00;;;;;;;24.73;98.80;101418.88;5034755;28;20495;-48
2023/08/04 10:37:05;;;;;;;0.00;0.00;;;;;;;24.58;98.61;101406.91;5040317;28;20041;-45
2023/08/04 10:39:32;;;;;;;0.00;0.00;;;;;;;25.11;95.75;101419.69;5042691;28;20287;-45
2023/08/04 10:41:59;;;;;;;0.00;0.00;;;;;;;25.58;92.03;101410.63;5048533;28;20025;-45
2023/08/04 10:44:56;;;;;;;0.00;0.00;;;;;;;26.08;91.24;101418.56;5045680;28;20029;-48
2023/08/04 10:47:28;;;;;;;0.00;0.00;;;;;;;26.40;91.95;101423.84;5037500;28;20045;-44
2023/08/04 10:49:53;;;;;;;0.00;0.00;;;;;;;26.45;89.56;101413.66;5050590;28;20037;-46
2023/08/04 10:52:19;;;;;;;0.00;0.00;;;;;;;26.22;91.37;101419.69;5048653;28;20044;-46
2023/08/04 10:54:45;;;;;;;0.00;0.00;;;;;;;26.69;92.56;101426.94;5050439;28;20477;-46
2023/08/04 10:57:21;;;;;;;0.00;0.00;;;;;;;27.24;90.65;101425.25;5050436;28;20606;-46
2023/08/04 10:59:50;;;;;;;0.00;0.00;;;;;;;27.12;89.50;101422.78;5044069;28;20419;-45
2023/08/04 11:02:17;;;;;;;0.00;0.00;;;;;;;26.58;93.58;101434.41;5050569;28;20096;-47
2023/08/04 11:04:44;;;;;;;0.00;0.00;;;;;;;26.20;93.90;101428.25;5051564;28;20111;-42
2023/08/04 11:07:10;;;;;;;0.00;0.00;;;;;;;25.62;95.68;101436.56;5052511;28;20490;-43
2023/08/04 11:09:35;;;;;;;0.00;0.00;;;;;;;25.24;96.52;101429.47;5052302;28;20021;-44
2023/08/04 11:12:03;;;;;;;0.00;0.00;;;;;;;24.90;98.26;101438.00;5047988;28;20025;-45